createdAt,value
2017-06-23T00:01:55.383Z,20.10
2017-06-23T00:04:21.455Z,15.80
2017-06-23T00:06:47.443Z,27.00
2017-06-23T00:09:13.406Z,17.30
2017-06-23T00:11:40.274Z,18.50
2017-06-23T00:14:06.197Z,15.90
2017-06-23T00:16:32.210Z,18.43
2017-06-23T00:18:58.234Z,21.17
2017-06-23T00:21:24.340Z,16.20
2017-06-23T00:23:50.298Z,20.60
2017-06-23T00:26:16.292Z,17.90
2017-06-23T00:28:42.314Z,20.70
2017-06-23T00:31:08.271Z,18.47
2017-06-23T00:33:34.223Z,17.70
2017-06-23T00:36:00.168Z,17.03
2017-06-23T00:38:26.717Z,21.33
2017-06-23T00:40:53.407Z,18.00
2017-06-23T00:43:19.436Z,16.90
2017-06-23T00:45:45.393Z,17.80
2017-06-23T00:48:11.393Z,14.30
2017-06-23T00:50:37.328Z,18.70
2017-06-23T00:53:03.244Z,18.17
2017-06-23T00:55:29.232Z,17.37
2017-06-23T00:57:55.163Z,20.20
2017-06-23T01:00:21.131Z,19.03
2017-06-23T01:02:47.555Z,26.70
2017-06-23T01:05:13.513Z,17.40
2017-06-23T01:07:39.438Z,18.27
2017-06-23T01:10:05.380Z,24.43
2017-06-23T01:12:32.117Z,18.53
2017-06-23T01:14:58.199Z,18.40
2017-06-23T01:17:24.147Z,19.10
2017-06-23T01:19:50.088Z,22.93
2017-06-23T01:22:16.067Z,22.97
2017-06-23T01:24:42.015Z,15.30
2017-06-23T01:27:07.968Z,21.57
2017-06-23T01:29:33.935Z,20.00
2017-06-23T01:31:59.878Z,20.60
2017-06-23T01:34:25.886Z,18.27
2017-06-23T01:36:51.883Z,24.03
2017-06-23T01:39:17.823Z,21.70
2017-06-23T01:41:43.823Z,25.30
2017-06-23T01:44:09.872Z,21.43
2017-06-23T01:46:36.077Z,16.97
2017-06-23T01:49:03.255Z,22.33
2017-06-23T01:51:29.227Z,22.57
2017-06-23T01:53:55.188Z,18.83
2017-06-23T01:56:21.143Z,25.20
2017-06-23T01:58:47.084Z,18.33
2017-06-23T02:01:13.043Z,20.57
2017-06-23T02:03:39.008Z,18.97
2017-06-23T02:06:04.954Z,20.03
2017-06-23T02:08:30.888Z,16.97
2017-06-23T02:10:57.917Z,22.17
2017-06-23T02:13:23.898Z,22.10
2017-06-23T02:15:50.718Z,20.10
2017-06-23T02:18:16.649Z,20.53
2017-06-23T02:20:42.582Z,16.10
2017-06-23T02:23:08.527Z,19.47
2017-06-23T02:25:34.519Z,19.70
2017-06-23T02:28:00.488Z,22.93
2017-06-23T02:30:26.427Z,16.50
2017-06-23T02:32:52.443Z,18.87
2017-06-23T02:35:18.423Z,20.77
2017-06-23T02:37:44.459Z,20.97
2017-06-23T02:40:10.464Z,22.43
2017-06-23T02:42:36.444Z,21.93
2017-06-23T02:45:02.420Z,19.70
2017-06-23T02:47:28.349Z,18.60
2017-06-23T02:49:54.357Z,17.23
2017-06-23T02:52:20.336Z,22.40
2017-06-23T02:54:46.282Z,16.33
2017-06-23T02:57:12.267Z,21.77
2017-06-23T02:59:38.308Z,21.77
2017-06-23T03:02:04.276Z,20.00
2017-06-23T03:04:30.217Z,23.13
2017-06-23T03:06:56.935Z,23.07
2017-06-23T03:09:22.877Z,21.37
2017-06-23T03:11:48.882Z,17.20
2017-06-23T03:14:15.621Z,18.33
2017-06-23T03:16:41.562Z,16.33
2017-06-23T03:19:07.568Z,21.93
2017-06-23T03:21:33.616Z,20.90
2017-06-23T03:23:59.559Z,16.87
2017-06-23T03:26:25.507Z,17.30
2017-06-23T03:28:51.479Z,25.33
2017-06-23T03:31:17.481Z,16.77
2017-06-23T03:33:44.235Z,18.53
2017-06-23T03:36:10.199Z,20.60
2017-06-23T03:38:36.192Z,19.73
2017-06-23T03:41:02.155Z,18.13
2017-06-23T03:43:28.097Z,29.13
2017-06-23T03:45:54.073Z,19.63
2017-06-23T03:48:20.039Z,15.73
2017-06-23T03:50:45.998Z,18.70
2017-06-23T03:53:11.927Z,17.93
2017-06-23T03:55:37.923Z,18.33
2017-06-23T03:58:04.640Z,17.40
2017-06-23T04:00:30.552Z,20.77
2017-06-23T04:02:56.547Z,15.83
2017-06-23T04:05:22.519Z,19.53
2017-06-23T04:07:49.200Z,21.10
2017-06-23T04:10:15.198Z,21.80
2017-06-23T04:12:41.145Z,24.83
2017-06-23T04:15:07.103Z,20.37
2017-06-23T04:17:33.105Z,20.77
2017-06-23T04:19:59.125Z,19.37
2017-06-23T04:22:25.120Z,21.53
2017-06-23T04:24:51.131Z,20.30
2017-06-23T04:27:17.401Z,25.33
2017-06-23T04:29:43.339Z,18.77
2017-06-23T04:32:09.360Z,18.57
2017-06-23T04:34:35.339Z,19.33
2017-06-23T04:37:01.296Z,21.13
2017-06-23T04:39:27.271Z,18.63
2017-06-23T04:41:53.236Z,18.50
2017-06-23T04:44:19.175Z,21.57
2017-06-23T04:46:45.140Z,21.27
2017-06-23T04:49:11.113Z,19.10
2017-06-23T04:51:37.047Z,17.90
2017-06-23T04:54:03.309Z,24.80
2017-06-23T04:56:29.263Z,23.17
2017-06-23T04:58:55.309Z,18.80
2017-06-23T05:01:21.562Z,23.20
2017-06-23T05:03:47.506Z,21.23
2017-06-23T05:06:13.552Z,20.93
2017-06-23T05:08:39.502Z,20.70
2017-06-23T05:11:05.473Z,18.60
2017-06-23T05:13:31.403Z,21.43
2017-06-23T05:15:57.368Z,17.50
2017-06-23T05:18:23.323Z,22.37
2017-06-23T05:20:49.315Z,19.23
2017-06-23T05:23:15.321Z,20.83
2017-06-23T05:25:41.506Z,16.50
2017-06-23T05:28:07.478Z,17.57
2017-06-23T05:30:34.202Z,18.40
2017-06-23T05:33:00.207Z,19.27
2017-06-23T05:35:26.230Z,22.93
2017-06-23T05:37:52.171Z,22.43
2017-06-23T05:40:18.347Z,26.90
2017-06-23T05:42:44.370Z,20.70
2017-06-23T05:45:10.400Z,20.13
2017-06-23T05:47:36.371Z,16.73
2017-06-23T05:50:02.341Z,21.47
2017-06-23T05:52:28.319Z,18.87
2017-06-23T05:57:25.075Z,19.13
2017-06-23T05:59:51.047Z,21.43
2017-06-23T06:02:17.094Z,24.33
2017-06-23T06:04:43.031Z,21.57
2017-06-23T06:07:08.988Z,19.17
2017-06-23T06:09:35.663Z,18.10
2017-06-23T06:12:01.671Z,19.50
2017-06-23T06:14:27.703Z,17.77
2017-06-23T06:16:53.676Z,21.80
2017-06-23T06:19:19.656Z,22.10
2017-06-23T06:21:45.608Z,18.47
2017-06-23T06:24:11.550Z,21.30
2017-06-23T06:26:37.547Z,20.47
2017-06-23T06:29:03.579Z,17.20
2017-06-23T06:31:29.538Z,15.70
2017-06-23T06:33:55.685Z,20.67
2017-06-23T06:36:21.643Z,18.60
2017-06-23T06:38:47.565Z,18.50
2017-06-23T06:41:13.497Z,21.60
2017-06-23T06:43:39.450Z,21.37
2017-06-23T06:46:05.420Z,19.27
2017-06-23T06:48:31.363Z,19.13
2017-06-23T06:50:57.328Z,17.77
2017-06-23T06:53:23.268Z,20.30
2017-06-23T06:55:49.292Z,17.27
2017-06-23T06:58:15.255Z,19.77
2017-06-23T07:00:41.211Z,16.80
2017-06-23T07:03:07.130Z,20.13
2017-06-23T07:05:33.060Z,14.53
2017-06-23T07:07:58.972Z,12.10
2017-06-23T07:10:24.899Z,11.97
2017-06-23T07:12:50.861Z,13.93
2017-06-23T07:15:16.822Z,15.53
2017-06-23T07:17:42.791Z,14.30
2017-06-23T07:20:08.738Z,14.70
2017-06-23T07:22:35.486Z,14.47
2017-06-23T07:25:01.379Z,15.30
2017-06-23T07:27:27.343Z,13.43
2017-06-23T07:29:53.811Z,12.70
2017-06-23T07:32:19.782Z,13.20
2017-06-23T07:34:45.707Z,11.80
2017-06-23T07:37:11.700Z,12.63
2017-06-23T07:39:37.676Z,13.30
2017-06-23T07:42:03.645Z,13.80
2017-06-23T07:44:29.572Z,12.43
2017-06-23T07:46:55.528Z,15.93
2017-06-23T07:49:21.458Z,13.27
2017-06-23T07:51:47.400Z,13.23
2017-06-23T07:54:13.464Z,16.43
2017-06-23T07:56:40.176Z,12.87
2017-06-23T07:59:06.099Z,13.40
2017-06-23T08:01:32.081Z,12.20
2017-06-23T08:03:58.054Z,13.33
2017-06-23T08:06:24.763Z,12.50
2017-06-23T08:08:50.957Z,14.07
2017-06-23T08:11:16.905Z,13.83
2017-06-23T08:13:42.844Z,17.80
2017-06-23T08:16:08.839Z,18.97
2017-06-23T08:18:34.817Z,13.97
2017-06-23T08:21:01.504Z,17.93
2017-06-23T08:23:27.461Z,14.60
2017-06-23T08:25:53.383Z,16.23
2017-06-23T08:28:19.324Z,13.43
2017-06-23T08:30:45.264Z,11.63
2017-06-23T08:33:11.169Z,12.10
2017-06-23T08:35:37.188Z,16.90
2017-06-23T08:38:03.313Z,14.80
2017-06-23T08:40:29.250Z,13.27
2017-06-23T08:42:55.213Z,12.53
2017-06-23T08:45:21.167Z,20.70
2017-06-23T08:47:47.852Z,12.70
2017-06-23T08:50:13.819Z,14.57
2017-06-23T08:52:39.818Z,17.93
2017-06-23T08:55:05.748Z,14.10
2017-06-23T08:57:31.813Z,13.57
2017-06-23T08:59:57.771Z,13.23
2017-06-23T09:02:23.727Z,15.90
2017-06-23T09:04:49.702Z,16.13
2017-06-23T09:07:15.635Z,14.90
2017-06-23T09:09:41.554Z,17.47
2017-06-23T09:12:07.499Z,16.77
2017-06-23T09:14:33.476Z,16.90
2017-06-23T09:16:59.515Z,14.23
2017-06-23T09:19:25.496Z,12.30
2017-06-23T09:21:51.484Z,13.23
2017-06-23T09:24:17.489Z,12.27
2017-06-23T09:26:43.433Z,14.47
2017-06-23T09:29:09.363Z,13.83
2017-06-23T09:31:35.282Z,11.80
2017-06-23T09:34:01.219Z,14.73
2017-06-23T09:36:27.163Z,12.10
2017-06-23T09:38:53.133Z,12.90
2017-06-23T09:41:19.055Z,12.50
2017-06-23T09:43:45.013Z,13.43
2017-06-23T09:46:10.952Z,12.77
2017-06-23T09:48:36.934Z,12.80
2017-06-23T09:51:03.675Z,12.00
2017-06-23T09:53:29.599Z,13.03
2017-06-23T09:55:55.548Z,12.27
2017-06-23T09:58:21.473Z,10.23
2017-06-23T10:00:47.460Z,10.00
2017-06-23T10:03:13.695Z,12.33
2017-06-23T10:05:39.638Z,9.50
2017-06-23T10:08:05.576Z,10.77
2017-06-23T10:10:31.501Z,10.57
2017-06-23T10:12:57.467Z,10.60
2017-06-23T10:15:23.440Z,10.27
2017-06-23T10:17:49.403Z,11.33
2017-06-23T10:20:15.341Z,11.40
2017-06-23T10:22:41.257Z,10.40
2017-06-23T10:25:07.157Z,12.43
2017-06-23T10:27:33.089Z,10.30
2017-06-23T10:29:59.016Z,10.30
2017-06-23T10:32:24.951Z,9.23
2017-06-23T10:34:50.994Z,10.27
2017-06-23T10:37:16.916Z,11.13
2017-06-23T10:39:42.851Z,10.70
2017-06-23T10:42:08.793Z,12.50
2017-06-23T10:44:34.751Z,10.47
2017-06-23T10:47:00.777Z,9.40
2017-06-23T10:49:26.788Z,11.17
2017-06-23T10:51:52.752Z,12.37
2017-06-23T10:54:18.810Z,9.43
2017-06-23T10:56:44.798Z,13.57
2017-06-23T10:59:10.719Z,11.33
2017-06-23T11:01:36.656Z,10.70
2017-06-23T11:04:02.603Z,10.97
2017-06-23T11:06:29.273Z,10.20
2017-06-23T11:08:55.263Z,8.37
2017-06-23T11:11:21.187Z,9.07
2017-06-23T11:13:47.153Z,8.87
2017-06-23T11:16:13.082Z,10.27
2017-06-23T11:18:39.112Z,9.47
2017-06-23T11:21:05.049Z,9.60
2017-06-23T11:23:31.055Z,11.70
2017-06-23T11:25:57.012Z,10.07
2017-06-23T11:28:23.040Z,9.50
2017-06-23T11:30:49.751Z,11.60
2017-06-23T11:33:15.727Z,10.17
2017-06-23T11:35:41.872Z,13.73
2017-06-23T11:38:08.009Z,9.60
2017-06-23T11:40:33.957Z,12.50
2017-06-23T11:43:01.808Z,18.33
2017-06-23T11:45:27.751Z,9.40
2017-06-23T11:47:55.244Z,10.27
2017-06-23T11:50:21.171Z,10.57
2017-06-23T11:52:47.091Z,13.93
2017-06-23T11:55:13.327Z,11.93
2017-06-23T11:57:39.517Z,11.50
2017-06-23T12:00:06.146Z,11.40
2017-06-23T12:02:32.858Z,10.67
2017-06-23T12:04:58.804Z,11.63
2017-06-23T12:07:24.731Z,9.43
2017-06-23T12:09:50.663Z,11.70
2017-06-23T12:12:16.649Z,11.20
2017-06-23T12:14:42.583Z,9.67
2017-06-23T12:17:09.281Z,10.33
2017-06-23T12:19:35.260Z,10.53
2017-06-23T12:22:01.207Z,12.23
2017-06-23T12:24:27.131Z,12.07
2017-06-23T12:26:53.053Z,9.73
2017-06-23T12:29:18.991Z,13.23
2017-06-23T12:31:44.928Z,11.67
2017-06-23T12:34:10.851Z,9.13
2017-06-23T12:36:36.791Z,9.50
2017-06-23T12:39:03.535Z,10.33
2017-06-23T12:41:29.464Z,11.27
2017-06-23T12:43:55.411Z,9.40
2017-06-23T12:46:21.361Z,9.87
2017-06-23T12:48:47.287Z,9.47
2017-06-23T12:51:13.302Z,10.80
2017-06-23T12:53:39.400Z,8.90
2017-06-23T12:56:05.558Z,8.77
2017-06-23T12:58:31.512Z,11.10
2017-06-23T13:00:57.470Z,10.23
2017-06-23T13:03:23.419Z,9.33
2017-06-23T13:05:49.367Z,9.27
2017-06-23T13:08:16.092Z,13.13
2017-06-23T13:10:42.051Z,12.17
2017-06-23T13:13:08.000Z,10.13
2017-06-23T13:15:34.056Z,14.63
2017-06-23T13:18:00.066Z,9.60
2017-06-23T13:20:26.040Z,9.83
2017-06-23T13:22:52.268Z,8.90
2017-06-23T13:25:18.188Z,11.47
2017-06-23T13:27:44.111Z,10.50
2017-06-23T13:30:10.152Z,8.63
2017-06-23T13:32:36.113Z,15.60
2017-06-23T13:35:02.084Z,12.30
2017-06-23T13:37:28.179Z,12.67
2017-06-23T13:39:54.907Z,10.73
2017-06-23T13:42:20.880Z,13.57
2017-06-23T13:44:46.844Z,8.80
2017-06-23T13:47:12.778Z,10.97
2017-06-23T13:49:38.752Z,9.10
2017-06-23T13:52:04.829Z,9.90
2017-06-23T13:54:30.790Z,9.80
2017-06-23T13:56:56.762Z,9.83
2017-06-23T13:59:22.797Z,10.00
2017-06-23T14:01:48.820Z,9.30
2017-06-23T14:04:14.793Z,10.20
2017-06-23T14:06:40.801Z,12.30
2017-06-23T14:09:07.619Z,9.30
2017-06-23T14:11:33.569Z,10.73
2017-06-23T14:13:59.548Z,9.07
2017-06-23T14:16:25.544Z,10.63
2017-06-23T14:18:52.091Z,13.37
2017-06-23T14:21:18.313Z,13.00
2017-06-23T14:23:44.282Z,8.57
2017-06-23T14:26:10.237Z,9.70
2017-06-23T14:28:36.199Z,10.17
2017-06-23T14:31:03.003Z,11.93
2017-06-23T14:33:28.960Z,10.57
2017-06-23T14:35:54.904Z,9.63
2017-06-23T14:38:20.843Z,10.20
2017-06-23T14:40:46.862Z,10.77
2017-06-23T14:43:13.233Z,10.03
2017-06-23T14:45:39.955Z,7.77
2017-06-23T14:48:05.905Z,8.30
2017-06-23T14:50:32.827Z,8.90
2017-06-23T14:52:59.879Z,12.57
2017-06-23T14:55:25.930Z,12.07
2017-06-23T14:57:52.677Z,10.03
2017-06-23T15:00:18.646Z,9.23
2017-06-23T15:02:44.624Z,9.13
2017-06-23T15:05:10.615Z,11.03
2017-06-23T15:07:36.621Z,10.20
2017-06-23T15:10:03.600Z,9.50
2017-06-23T15:12:29.559Z,11.90
2017-06-23T15:14:55.527Z,14.13
2017-06-23T15:17:21.567Z,10.23
2017-06-23T15:19:47.643Z,14.50
2017-06-23T15:22:13.674Z,8.87
2017-06-23T15:24:39.671Z,8.73
2017-06-23T15:27:05.722Z,12.27
2017-06-23T15:29:31.691Z,8.87
2017-06-23T15:31:57.685Z,9.93
2017-06-23T15:34:23.622Z,11.77
2017-06-23T15:36:49.875Z,10.03
2017-06-23T15:39:15.919Z,8.83
2017-06-23T15:41:41.908Z,11.07
2017-06-23T15:44:07.946Z,8.40
2017-06-23T15:46:33.956Z,9.67
2017-06-23T15:48:59.927Z,10.27
2017-06-23T15:51:26.007Z,15.00
2017-06-23T15:53:52.016Z,10.20
2017-06-23T15:56:18.198Z,10.37
2017-06-23T15:58:44.194Z,11.73
2017-06-23T16:01:11.052Z,12.50
2017-06-23T16:03:38.625Z,12.00
2017-06-23T16:06:04.964Z,22.13
2017-06-23T16:08:31.006Z,13.73
2017-06-23T16:10:57.644Z,10.27
2017-06-23T16:13:23.891Z,11.50
2017-06-23T16:15:50.463Z,9.40
2017-06-23T16:18:16.509Z,10.53
2017-06-23T16:20:42.752Z,10.27
2017-06-23T16:23:08.843Z,12.57
2017-06-23T16:25:34.817Z,10.93
2017-06-23T16:28:00.815Z,10.13
2017-06-23T16:30:26.802Z,11.03
2017-06-23T16:32:52.788Z,12.50
2017-06-23T16:35:18.782Z,13.50
2017-06-23T16:37:44.796Z,11.10
2017-06-23T16:40:10.731Z,10.57
2017-06-23T16:42:36.687Z,12.73
2017-06-23T16:45:02.611Z,10.10
2017-06-23T16:47:28.558Z,9.83
2017-06-23T16:49:54.847Z,12.67
2017-06-23T16:52:20.822Z,9.70
2017-06-23T16:54:47.588Z,10.50
2017-06-23T16:57:13.587Z,12.17
2017-06-23T16:59:40.321Z,8.83
2017-06-23T17:02:06.289Z,8.17
2017-06-23T17:04:32.282Z,8.23
2017-06-23T17:06:58.287Z,10.53
2017-06-23T17:09:24.260Z,12.27
2017-06-23T17:11:50.207Z,8.00
2017-06-23T17:14:17.623Z,11.60
2017-06-23T17:16:43.645Z,12.73
2017-06-23T17:19:11.414Z,9.00
2017-06-23T17:21:37.412Z,8.83
2017-06-23T17:24:03.428Z,7.40
2017-06-23T17:26:29.439Z,9.43
2017-06-23T17:28:55.389Z,11.33
2017-06-23T17:31:21.456Z,15.63
2017-06-23T17:33:47.414Z,12.60
2017-06-23T17:36:13.406Z,10.57
2017-06-23T17:38:39.425Z,10.60
2017-06-23T17:41:05.561Z,11.73
2017-06-23T17:43:31.531Z,8.53
2017-06-23T17:45:57.495Z,7.30
2017-06-23T17:48:23.483Z,8.17
2017-06-23T17:50:50.511Z,7.67
2017-06-23T17:53:16.894Z,8.00
2017-06-23T17:55:42.893Z,10.13
2017-06-23T17:58:09.758Z,9.63
2017-06-23T18:00:38.117Z,11.70
2017-06-23T18:03:04.159Z,7.43
2017-06-23T18:05:30.196Z,8.57
2017-06-23T18:07:56.221Z,9.37
2017-06-23T18:10:22.408Z,10.63
2017-06-23T18:12:49.679Z,14.83
2017-06-23T18:15:15.688Z,7.93
2017-06-23T18:17:42.016Z,6.60
2017-06-23T18:20:08.975Z,11.73
2017-06-23T18:22:35.921Z,8.87
2017-06-23T18:25:04.608Z,17.17
2017-06-23T18:27:32.395Z,10.67
2017-06-23T18:30:02.038Z,8.27
2017-06-23T18:32:28.943Z,8.27
2017-06-23T18:34:55.051Z,6.80
2017-06-23T18:37:21.076Z,7.70
2017-06-23T18:39:47.039Z,8.77
2017-06-23T18:42:13.299Z,12.30
2017-06-23T18:44:39.351Z,8.67
2017-06-23T18:47:05.295Z,8.30
2017-06-23T18:49:31.338Z,7.67
2017-06-23T18:51:57.343Z,7.83
2017-06-23T18:54:24.346Z,7.73
2017-06-23T18:56:50.552Z,7.47
2017-06-23T18:59:17.469Z,8.00
2017-06-23T19:04:14.527Z,9.00
2017-06-23T19:06:40.570Z,8.10
2017-06-23T19:09:06.597Z,7.87
2017-06-23T19:11:32.604Z,7.40
2017-06-23T19:13:58.724Z,9.43
2017-06-23T19:16:26.186Z,7.90
2017-06-23T19:18:53.726Z,10.17
2017-06-23T19:21:19.844Z,12.63
2017-06-23T19:23:45.801Z,8.03
2017-06-23T19:26:11.939Z,10.13
2017-06-23T19:28:38.573Z,11.10
2017-06-23T19:31:04.787Z,9.53
2017-06-23T19:33:31.262Z,11.03
2017-06-23T19:35:57.203Z,8.33
2017-06-23T19:38:23.167Z,7.93
2017-06-23T19:40:49.169Z,9.20
2017-06-23T19:43:15.238Z,8.33
2017-06-23T19:45:41.231Z,7.03
2017-06-23T19:48:07.169Z,8.10
2017-06-23T19:50:33.376Z,9.43
2017-06-23T19:52:59.346Z,7.87
2017-06-23T19:55:26.346Z,9.23
2017-06-23T19:57:52.995Z,10.40
2017-06-23T20:00:19.006Z,7.20
2017-06-23T20:02:45.156Z,7.33
2017-06-23T20:05:12.700Z,9.47
2017-06-23T20:07:38.716Z,6.77
2017-06-23T20:10:07.784Z,8.50
2017-06-23T20:12:35.077Z,8.17
2017-06-23T20:15:01.129Z,9.10
2017-06-23T20:17:27.135Z,8.07
2017-06-23T20:19:54.411Z,8.53
2017-06-23T20:22:20.389Z,7.20
2017-06-23T20:24:46.417Z,8.03
2017-06-23T20:27:19.015Z,10.80
2017-06-23T20:29:44.988Z,7.93
2017-06-23T20:32:10.943Z,8.13
2017-06-23T20:34:37.753Z,11.20
2017-06-23T20:37:03.697Z,9.13
2017-06-23T20:39:29.763Z,10.10
2017-06-23T20:41:55.772Z,9.13
2017-06-23T20:44:21.727Z,11.10
2017-06-23T20:46:47.781Z,7.43
2017-06-23T20:49:14.344Z,8.90
2017-06-23T20:51:40.343Z,7.93
2017-06-23T20:54:06.281Z,7.90
2017-06-23T20:56:32.309Z,8.23
2017-06-23T20:58:58.363Z,8.53
2017-06-23T21:01:24.367Z,7.90
2017-06-23T21:03:50.439Z,7.37
2017-06-23T21:06:16.451Z,9.80
2017-06-23T21:08:43.274Z,7.73
2017-06-23T21:11:09.979Z,8.27
2017-06-23T21:13:35.928Z,8.77
2017-06-23T21:16:01.873Z,8.57
2017-06-23T21:18:28.023Z,12.00
2017-06-23T21:20:53.984Z,11.23
2017-06-23T21:23:19.959Z,10.30
2017-06-23T21:25:45.935Z,8.00
2017-06-23T21:28:11.970Z,9.33
2017-06-23T21:30:38.018Z,7.80
2017-06-23T21:33:04.095Z,6.90
2017-06-23T21:35:30.043Z,14.30
2017-06-23T21:37:56.048Z,7.20
2017-06-23T21:40:34.250Z,8.93
2017-06-23T21:43:00.227Z,8.23
2017-06-23T21:45:26.310Z,8.80
2017-06-23T21:47:52.335Z,8.83
2017-06-23T21:50:18.364Z,8.03
2017-06-23T21:52:44.418Z,7.93
2017-06-23T21:55:10.358Z,9.80
2017-06-23T21:57:36.327Z,7.60
2017-06-23T22:00:02.284Z,8.33
2017-06-23T22:02:28.319Z,8.27
2017-06-23T22:04:54.745Z,9.70
2017-06-23T22:07:20.735Z,9.83
2017-06-23T22:09:46.759Z,7.83
2017-06-23T22:12:12.771Z,10.83
2017-06-23T22:14:39.538Z,8.43
2017-06-23T22:17:05.503Z,7.57
2017-06-23T22:19:31.577Z,8.03
2017-06-23T22:21:57.566Z,8.10
2017-06-23T22:24:23.496Z,8.50
2017-06-23T22:26:49.432Z,8.63
2017-06-23T22:29:15.353Z,8.50
2017-06-23T22:31:41.351Z,8.77
2017-06-23T22:34:07.328Z,7.93
2017-06-23T22:36:34.164Z,9.80
2017-06-23T22:39:00.066Z,20.03
2017-06-23T22:41:26.048Z,7.07
2017-06-23T22:43:52.028Z,9.23
2017-06-23T22:46:17.984Z,10.10
2017-06-23T22:48:43.957Z,9.73
2017-06-23T22:51:09.909Z,8.70
2017-06-23T22:53:35.937Z,7.03
2017-06-23T22:56:02.207Z,8.87
2017-06-23T22:58:28.189Z,8.30
2017-06-23T23:00:54.155Z,7.07
2017-06-23T23:03:20.208Z,7.50
2017-06-23T23:05:47.029Z,8.50
2017-06-23T23:08:13.080Z,6.97
2017-06-23T23:10:39.027Z,6.90
2017-06-23T23:13:04.989Z,6.80
2017-06-23T23:15:30.925Z,7.40
2017-06-23T23:17:56.932Z,6.73
2017-06-23T23:20:22.892Z,6.83
2017-06-23T23:22:49.713Z,7.33
2017-06-23T23:25:15.708Z,7.57
2017-06-23T23:27:41.658Z,9.10
2017-06-23T23:30:07.612Z,7.20
2017-06-23T23:32:33.564Z,7.30
2017-06-23T23:34:59.577Z,7.93
2017-06-23T23:37:25.548Z,7.40
2017-06-23T23:39:51.495Z,7.60
2017-06-23T23:42:17.481Z,7.30
2017-06-23T23:44:43.494Z,7.60
2017-06-23T23:47:09.630Z,7.73
2017-06-23T23:49:35.566Z,7.60
2017-06-23T23:52:01.761Z,7.73
2017-06-23T23:54:27.711Z,8.97
2017-06-23T23:56:53.638Z,8.83
2017-06-23T23:59:19.552Z,6.80
